Memorial Field
KHOT : now visible

Airfield :











YOU CAN JOIN US ON...

 
LOGIN :

Register | Disclaimer

   EN    FR    IT 

 









Legend :    VFR   Marginal VFR   IFR   Intensive IFR   Very Intensive IFR
Visi :
Ceiling :
>= 8 km
>= 3000ft
5 to 8 km
1000 to 3000 ft
1500m to 5 km
500 to 1000 ft
800 to 1500m
200 to 500 ft
< 800m
< 200 ft
Symbols :   Thunderstorms  Fog  Heavy snow  Heavy precipitations  Wind > 20 kt







- Airport Elevation : 540 ft
- IATA code : HOT


KHOT - Memorial Field

CURRENT METAR :
  • 181558Z AUTO 22004KT 10SM -RA FEW008 BKN015 OVC095 17/17 A2973 RMK AO2 P0000 T01670167

EXPIRED METARs :
  • 181553Z AUTO VRB03KT 9SM -RA BKN014 BKN021 OVC080 17/17 A2973 RMK AO2 RAE23B39 SLP064 P0002 T01670167
  • 181528Z AUTO 30005KT 10SM BKN012 BKN090 OVC100 17/16 A2972 RMK AO2 RAE23 PRESRR P0002 T01670161
  • 181453Z AUTO 00000KT 10SM -RA FEW010 FEW047 OVC095 17/16 A2973 RMK AO2 SLP063 P0003 60026 T01670161 56011
  • 181353Z AUTO 12008KT 4SM RA BR FEW005 BKN080 OVC090 17/17 A2973 RMK AO2 SLP064 P0008 T01670167

TAF KHOT
Valid from the 18 at 12:00 until the 19 at 12:00 UTC


181152Z 1812/1912 VRB06KT 4SM -RA BR VCTS SCT007 BKN050CB
FM181500 25006KT 4SM -SHRA BR VCTS OVC015CB
FM182000 36010G18KT P6SM VCSH OVC025
FM190000 35008KT P6SM BKN050
KZME FIR / North America



MET'MAP, your aeronautical weather chart ! - Copyright ORBIFLY December 2007 - Disclaimer

ORBIFLY MET'MAP TEAM :

Programming & Development : Alexandra Zaïnal
Concept & Development : Baudouin d'Aumeries
Co-Development & Prog : Marc-Olivier Méhu
Technical & hardware support : Manuel Goepfert

Contact : metmap@orbifly.com




SOURCES & CREDITS :

   NOAA       Earth
Advisory